Time;durP1;ratioP1;P1;durP2;ratioP2;P2;SDS_P1;SDS_P2;PMS_P1;PMS_P2;Temp;Humidity;BMP_temperature;BMP_pressure;BME280_temperature;BME280_humidity;BME280_pressure;Samples;Min_cycle;Max_cycle;Signal;HPM_P1;HPM_P2
2023/01/26 00:01:48;;;;;;;6.10;1.50;;;;;;;;;;4994909;28;20061;-65
2023/01/26 00:04:15;;;;;;;4.50;1.20;;;;;;;;;;4995228;28;20034;-63
2023/01/26 00:06:42;;;;;;;6.95;1.30;;;;;;;;;;4995757;28;20044;-64
2023/01/26 00:09:12;;;;;;;5.15;1.00;;;;;;;;;;4997598;28;20045;-65
2023/01/26 00:11:38;;;;;;;3.97;1.05;;;;;;;;;;4999170;28;20038;-64
2023/01/26 00:14:05;;;;;;;7.57;1.05;;;;;;;;;;4995307;28;20042;-65
2023/01/26 00:16:32;;;;;;;9.18;1.20;;;;;;;;;;4995611;28;20046;-65
2023/01/26 00:18:58;;;;;;;3.95;1.05;;;;;;;;;;5010261;28;21013;-65
2023/01/26 00:21:25;;;;;;;7.07;0.90;;;;;;;;;;4996756;28;20128;-65
2023/01/26 00:23:52;;;;;;;7.53;1.48;;;;;;;;;;4996634;28;20086;-65
2023/01/26 00:26:20;;;;;;;5.72;1.42;;;;;;;;;;5010770;28;20495;-66
2023/01/26 00:28:47;;;;;;;3.17;1.10;;;;;;;;;;4995602;28;22077;-65
2023/01/26 00:31:15;;;;;;;6.05;1.30;;;;;;;;;;4994670;28;20226;-63
2023/01/26 00:33:41;;;;;;;10.70;1.40;;;;;;;;;;4994701;28;21464;-65
2023/01/26 00:36:08;;;;;;;10.98;1.50;;;;;;;;;;4997979;28;20113;-66
2023/01/26 00:38:35;;;;;;;7.60;1.50;;;;;;;;;;4993271;28;20042;-66
2023/01/26 00:41:02;;;;;;;7.35;1.92;;;;;;;;;;4982741;28;20629;-65
2023/01/26 00:43:28;;;;;;;5.97;1.20;;;;;;;;;;4996009;28;20372;-66
2023/01/26 00:45:55;;;;;;;5.03;1.45;;;;;;;;;;5007269;28;20046;-65
2023/01/26 00:48:22;;;;;;;4.85;1.25;;;;;;;;;;4995033;28;20396;-65
2023/01/26 00:50:50;;;;;;;6.40;1.50;;;;;;;;;;4990170;28;20050;-65
2023/01/26 00:53:17;;;;;;;4.28;1.42;;;;;;;;;;4984816;28;20084;-66
2023/01/26 00:55:43;;;;;;;6.18;1.45;;;;;;;;;;4996423;28;20061;-66
2023/01/26 00:58:10;;;;;;;6.28;1.50;;;;;;;;;;4996188;28;20377;-65
2023/01/26 01:00:38;;;;;;;4.20;1.33;;;;;;;;;;4994792;28;20042;-66
2023/01/26 01:03:05;;;;;;;7.32;1.95;;;;;;;;;;4995981;28;20070;-65
2023/01/26 01:05:32;;;;;;;8.95;1.40;;;;;;;;;;4995687;28;20422;-65
2023/01/26 01:07:59;;;;;;;4.95;1.38;;;;;;;;;;4998773;28;20080;-65
2023/01/26 01:10:26;;;;;;;6.82;1.40;;;;;;;;;;4998739;28;20038;-65
2023/01/26 01:12:53;;;;;;;6.45;1.15;;;;;;;;;;5000246;28;20042;-67
2023/01/26 01:15:19;;;;;;;5.70;1.23;;;;;;;;;;4991080;28;20380;-65
2023/01/26 01:17:46;;;;;;;3.72;1.00;;;;;;;;;;4979770;28;20050;-64
2023/01/26 01:20:12;;;;;;;5.32;1.45;;;;;;;;;;4994264;28;20046;-65
2023/01/26 01:22:39;;;;;;;3.00;0.98;;;;;;;;;;4994954;28;20046;-65
2023/01/26 01:25:06;;;;;;;7.57;1.30;;;;;;;;;;4994920;28;20052;-65
2023/01/26 01:27:32;;;;;;;6.10;1.50;;;;;;;;;;4994216;28;20041;-64
2023/01/26 01:29:59;;;;;;;7.07;1.00;;;;;;;;;;4994372;28;20046;-64
2023/01/26 01:32:26;;;;;;;4.45;1.15;;;;;;;;;;4994015;28;20069;-66
2023/01/26 01:34:52;;;;;;;4.95;1.20;;;;;;;;;;4994712;28;20045;-65
2023/01/26 01:37:19;;;;;;;7.38;1.23;;;;;;;;;;4994154;28;20061;-65
2023/01/26 01:39:46;;;;;;;4.60;0.90;;;;;;;;;;4994057;28;20153;-67
2023/01/26 01:42:12;;;;;;;3.22;0.90;;;;;;;;;;4996249;28;20059;-64
2023/01/26 01:44:39;;;;;;;2.10;0.70;;;;;;;;;;4997225;28;20046;-66
2023/01/26 01:47:09;;;;;;;2.30;0.88;;;;;;;;;;4998067;28;20120;-65
2023/01/26 01:49:42;;;;;;;2.65;0.80;;;;;;;;;;4996125;28;20598;-65
2023/01/26 01:52:14;;;;;;;3.22;1.00;;;;;;;;;;4997481;28;20141;-66
2023/01/26 01:54:43;;;;;;;3.78;1.60;;;;;;;;;;4997472;28;20046;-65
2023/01/26 01:57:17;;;;;;;5.63;1.75;;;;;;;;;;4998131;28;20505;-65
2023/01/26 01:59:51;;;;;;;6.63;2.70;;;;;;;;;;4995879;28;20507;-69
2023/01/26 02:02:18;;;;;;;5.65;2.03;;;;;;;;;;4997557;28;20132;-65
2023/01/26 02:04:45;;;;;;;4.22;1.35;;;;;;;;;;4996688;28;20042;-65
2023/01/26 02:07:11;;;;;;;3.63;1.15;;;;;;;;;;4997484;28;20042;-64
2023/01/26 02:12:27;;;;;;;3.55;1.13;;;;;;;;;;4998586;28;20041;-68
2023/01/26 02:14:53;;;;;;;3.75;0.90;;;;;;;;;;5012284;28;20729;-66
2023/01/26 02:17:20;;;;;;;4.57;1.00;;;;;;;;;;4996789;28;20046;-67
2023/01/26 02:20:03;;;;;;;5.15;1.20;;;;;;;;;;4995640;28;20049;-66
2023/01/26 02:22:36;;;;;;;6.68;0.90;;;;;;;;;;4996585;28;20034;-71
2023/01/26 02:25:02;;;;;;;;;;;;;;;;;;4988032;28;20038;-66
2023/01/26 02:27:29;;;;;;;4.85;0.82;;;;;;;;;;5010914;28;19921;-66
2023/01/26 02:29:56;;;;;;;5.82;0.90;;;;;;;;;;4996964;28;21792;-65
2023/01/26 02:32:23;;;;;;;3.13;0.85;;;;;;;;;;4997879;28;20046;-65
2023/01/26 02:34:55;;;;;;;3.08;1.00;;;;;;;;;;4997238;28;20046;-67
2023/01/26 02:37:22;;;;;;;5.95;0.85;;;;;;;;;;4979660;28;20034;-66
2023/01/26 02:40:09;;;;;;;4.22;0.80;;;;;;;;;;4978124;28;20357;-66
2023/01/26 02:42:39;;;;;;;2.67;0.70;;;;;;;;;;4976043;28;20043;-66
2023/01/26 02:45:07;;;;;;;4.57;0.75;;;;;;;;;;4978226;28;20053;-71
2023/01/26 02:47:33;;;;;;;3.08;0.93;;;;;;;;;;4976214;28;20054;-66
2023/01/26 02:50:00;;;;;;;2.20;0.68;;;;;;;;;;4976645;28;20073;-67
2023/01/26 02:52:29;;;;;;;4.00;0.80;;;;;;;;;;4976455;28;20530;-67
2023/01/26 02:57:41;;;;;;;5.00;1.02;;;;;;;;;;4977005;28;20045;-68
2023/01/26 03:00:10;;;;;;;5.28;1.00;;;;;;;;;;4976740;28;20483;-66
2023/01/26 03:02:37;;;;;;;5.47;1.23;;;;;;;;;;4976346;28;20799;-65
2023/01/26 03:05:03;;;;;;;3.00;0.90;;;;;;;;;;4977282;28;21581;-69
2023/01/26 03:07:30;;;;;;;3.78;1.10;;;;;;;;;;4976777;28;20541;-66
2023/01/26 03:10:00;;;;;;;5.18;1.00;;;;;;;;;;4977118;28;20046;-66
2023/01/26 03:12:27;;;;;;;4.55;1.05;;;;;;;;;;4976375;28;20070;-66
2023/01/26 03:17:39;;;;;;;7.00;1.10;;;;;;;;;;4976104;28;20089;-66
2023/01/26 03:28:22;;;;;;;4.60;1.17;;;;;;;;;;4975659;28;20045;-68
2023/01/26 03:30:49;;;;;;;4.57;1.02;;;;;;;;;;4976293;28;20064;-65
2023/01/26 03:33:16;;;;;;;5.47;1.02;;;;;;;;;;4991820;28;20345;-67
2023/01/26 03:35:43;;;;;;;3.10;1.00;;;;;;;;;;4976113;28;20053;-66
2023/01/26 03:38:10;;;;;;;6.63;1.00;;;;;;;;;;4991829;28;20046;-66
2023/01/26 03:57:07;;;;;;;3.70;0.98;;;;;;;;;;4995824;28;20526;-67
2023/01/26 03:59:37;;;;;;;10.63;1.20;;;;;;;;;;4983055;28;20045;-68
2023/01/26 04:10:23;;;;;;;3.97;1.00;;;;;;;;;;4994017;28;20103;-66
2023/01/26 04:23:56;;;;;;;6.32;1.90;;;;;;;;;;4994222;28;20100;-66
2023/01/26 04:26:24;;;;;;;4.43;0.98;;;;;;;;;;5007191;28;20045;-66
2023/01/26 04:28:50;;;;;;;5.80;1.00;;;;;;;;;;4995119;28;20036;-67
2023/01/26 04:31:18;;;;;;;6.30;1.20;;;;;;;;;;4992970;28;20066;-66
2023/01/26 04:33:45;;;;;;;3.53;0.98;;;;;;;;;;4988790;28;20034;-65
2023/01/26 04:36:12;;;;;;;3.60;1.05;;;;;;;;;;5002418;28;20510;-67
2023/01/26 04:38:38;;;;;;;3.88;0.90;;;;;;;;;;4994448;28;21356;-66
2023/01/26 04:41:05;;;;;;;2.55;0.75;;;;;;;;;;4995094;28;20067;-66
2023/01/26 04:43:32;;;;;;;3.25;0.85;;;;;;;;;;4996745;28;20597;-66
2023/01/26 04:46:03;;;;;;;9.55;0.98;;;;;;;;;;4995961;28;20554;-65
2023/01/26 04:48:29;;;;;;;4.72;0.88;;;;;;;;;;4994636;28;20037;-66
2023/01/26 04:50:57;;;;;;;7.70;1.10;;;;;;;;;;5008307;28;20121;-67
2023/01/26 04:53:24;;;;;;;3.25;0.80;;;;;;;;;;4996174;28;20179;-64
2023/01/26 04:55:51;;;;;;;4.22;1.25;;;;;;;;;;4995455;28;20045;-64
2023/01/26 04:58:18;;;;;;;4.78;1.20;;;;;;;;;;4995391;28;20038;-65
2023/01/26 05:00:45;;;;;;;3.30;0.88;;;;;;;;;;4974684;28;20066;-65
2023/01/26 05:03:11;;;;;;;4.18;1.00;;;;;;;;;;4976516;28;20042;-65
2023/01/26 05:05:38;;;;;;;3.53;1.05;;;;;;;;;;4974799;28;20050;-64
2023/01/26 05:08:06;;;;;;;4.07;1.30;;;;;;;;;;4975456;28;20108;-65
2023/01/26 05:10:33;;;;;;;4.80;0.90;;;;;;;;;;4974233;28;20079;-65
2023/01/26 05:12:59;;;;;;;2.80;0.80;;;;;;;;;;4990451;28;20042;-66
2023/01/26 05:15:26;;;;;;;2.50;0.95;;;;;;;;;;4974378;28;20133;-65
2023/01/26 05:17:53;;;;;;;2.60;0.80;;;;;;;;;;4977567;28;20038;-65
2023/01/26 05:20:20;;;;;;;5.72;0.98;;;;;;;;;;4976651;28;20039;-66
2023/01/26 05:22:46;;;;;;;5.45;1.02;;;;;;;;;;4979690;28;20145;-66
2023/01/26 05:25:13;;;;;;;4.90;1.27;;;;;;;;;;4979502;28;20042;-66
2023/01/26 05:27:40;;;;;;;8.10;1.13;;;;;;;;;;4978652;28;20045;-67
2023/01/26 05:30:06;;;;;;;6.40;1.10;;;;;;;;;;4978461;28;20042;-67
2023/01/26 05:32:33;;;;;;;3.03;0.90;;;;;;;;;;4977751;28;20177;-66
2023/01/26 05:35:00;;;;;;;3.00;1.00;;;;;;;;;;4992879;28;20038;-67
2023/01/26 05:37:27;;;;;;;3.83;1.13;;;;;;;;;;4978459;28;20039;-66
2023/01/26 05:39:54;;;;;;;6.47;1.40;;;;;;;;;;4978518;28;20042;-66
2023/01/26 05:42:22;;;;;;;4.05;1.30;;;;;;;;;;4965197;28;20049;-68
2023/01/26 05:44:48;;;;;;;5.47;1.10;;;;;;;;;;4992367;28;20049;-67
2023/01/26 05:47:15;;;;;;;5.28;1.25;;;;;;;;;;4993127;28;20152;-68
2023/01/26 05:49:42;;;;;;;7.70;1.17;;;;;;;;;;4977122;28;20149;-66
2023/01/26 05:52:09;;;;;;;4.78;1.40;;;;;;;;;;4979808;28;20565;-66
2023/01/26 05:54:36;;;;;;;6.25;0.90;;;;;;;;;;4976464;28;20042;-67
2023/01/26 05:57:03;;;;;;;3.20;0.95;;;;;;;;;;4978783;28;20058;-66
2023/01/26 05:59:30;;;;;;;2.35;0.80;;;;;;;;;;4977133;28;20129;-65
2023/01/26 06:01:57;;;;;;;4.53;1.05;;;;;;;;;;4973822;28;20047;-66
2023/01/26 06:04:24;;;;;;;2.85;0.90;;;;;;;;;;4993125;28;20125;-65
2023/01/26 06:06:54;;;;;;;3.40;1.00;;;;;;;;;;4979557;28;20503;-66
2023/01/26 06:09:21;;;;;;;3.20;0.70;;;;;;;;;;4991971;28;20049;-65
2023/01/26 06:11:49;;;;;;;3.28;0.95;;;;;;;;;;4978563;28;20038;-65
2023/01/26 06:14:16;;;;;;;3.05;0.80;;;;;;;;;;4977917;28;20062;-65
2023/01/26 06:16:42;;;;;;;2.80;0.90;;;;;;;;;;4978308;28;20073;-65
2023/01/26 06:19:10;;;;;;;2.60;0.80;;;;;;;;;;4978066;28;20149;-66
2023/01/26 06:21:36;;;;;;;3.10;0.70;;;;;;;;;;4977419;28;20046;-65
2023/01/26 06:24:03;;;;;;;4.60;0.70;;;;;;;;;;4978668;28;20088;-66
2023/01/26 06:26:30;;;;;;;1.88;0.50;;;;;;;;;;4978084;28;20081;-66
2023/01/26 06:28:57;;;;;;;2.58;0.70;;;;;;;;;;4992218;28;20046;-66
2023/01/26 06:31:28;;;;;;;2.15;0.60;;;;;;;;;;4977323;28;20049;-65
2023/01/26 06:33:55;;;;;;;3.72;0.75;;;;;;;;;;4978111;28;20044;-66
2023/01/26 06:36:22;;;;;;;2.28;0.63;;;;;;;;;;4977668;28;20125;-66
2023/01/26 06:38:49;;;;;;;3.25;0.70;;;;;;;;;;4977974;28;20042;-66
2023/01/26 06:41:16;;;;;;;3.13;0.50;;;;;;;;;;4978642;28;20045;-66
2023/01/26 06:43:47;;;;;;;1.88;0.60;;;;;;;;;;4977087;28;20835;-65
2023/01/26 06:46:14;;;;;;;2.85;0.63;;;;;;;;;;4980165;28;20065;-66
2023/01/26 06:48:41;;;;;;;2.65;0.50;;;;;;;;;;4979509;28;20209;-66
2023/01/26 06:51:16;;;;;;;1.52;0.50;;;;;;;;;;4979932;28;20526;-66
2023/01/26 06:53:47;;;;;;;2.08;0.70;;;;;;;;;;4985109;28;20031;-66
2023/01/26 06:56:14;;;;;;;2.78;0.60;;;;;;;;;;4990573;28;20131;-67
2023/01/26 06:58:40;;;;;;;1.77;0.50;;;;;;;;;;4991180;28;20442;-66
2023/01/26 07:01:07;;;;;;;1.38;0.50;;;;;;;;;;4991938;28;20047;-68
2023/01/26 07:03:34;;;;;;;1.63;0.57;;;;;;;;;;4992006;28;20272;-65
2023/01/26 07:06:00;;;;;;;1.73;0.60;;;;;;;;;;4992586;28;20036;-65
2023/01/26 07:08:27;;;;;;;2.83;0.85;;;;;;;;;;4989748;28;20039;-67
2023/01/26 07:10:54;;;;;;;2.80;0.80;;;;;;;;;;4988672;28;20883;-66
2023/01/26 07:13:20;;;;;;;3.55;0.90;;;;;;;;;;4984498;28;20035;-64
2023/01/26 07:15:47;;;;;;;2.63;0.80;;;;;;;;;;4991728;28;20061;-66
2023/01/26 07:18:13;;;;;;;3.42;0.80;;;;;;;;;;4990662;28;20058;-65
2023/01/26 07:20:40;;;;;;;3.80;0.90;;;;;;;;;;4990211;28;20093;-66
2023/01/26 07:23:07;;;;;;;2.50;0.70;;;;;;;;;;4989936;28;20042;-65
2023/01/26 07:25:33;;;;;;;2.67;0.75;;;;;;;;;;4990370;28;20101;-66
2023/01/26 07:28:00;;;;;;;2.42;0.70;;;;;;;;;;4992391;28;20053;-66
2023/01/26 07:30:27;;;;;;;3.88;0.82;;;;;;;;;;5008119;28;20321;-66
2023/01/26 07:32:53;;;;;;;4.07;0.80;;;;;;;;;;4988789;28;20053;-66
2023/01/26 07:35:20;;;;;;;3.38;0.82;;;;;;;;;;4988670;28;20034;-69
2023/01/26 07:37:47;;;;;;;2.10;0.63;;;;;;;;;;4985265;28;20133;-66
2023/01/26 07:40:13;;;;;;;3.90;1.00;;;;;;;;;;4989727;28;20069;-67
2023/01/26 07:42:40;;;;;;;7.43;1.30;;;;;;;;;;4987026;28;20034;-66
2023/01/26 07:45:07;;;;;;;3.30;0.93;;;;;;;;;;4999490;28;20042;-65
2023/01/26 07:47:34;;;;;;;4.43;1.05;;;;;;;;;;4983048;28;20073;-66
2023/01/26 07:50:01;;;;;;;4.30;1.30;;;;;;;;;;4986329;28;20030;-66
2023/01/26 07:52:28;;;;;;;3.53;1.10;;;;;;;;;;4985614;28;20105;-66
2023/01/26 07:54:54;;;;;;;4.13;1.20;;;;;;;;;;4990840;28;20046;-64
2023/01/26 07:57:21;;;;;;;5.30;1.13;;;;;;;;;;4986970;28;20046;-65
2023/01/26 07:59:48;;;;;;;4.32;1.10;;;;;;;;;;4983702;28;20121;-65
2023/01/26 08:02:14;;;;;;;4.85;1.02;;;;;;;;;;4977053;28;20034;-65
2023/01/26 08:04:41;;;;;;;3.33;1.15;;;;;;;;;;4977528;28;20153;-65
2023/01/26 08:07:07;;;;;;;5.43;0.90;;;;;;;;;;4982018;28;20042;-66
2023/01/26 08:09:34;;;;;;;3.63;1.05;;;;;;;;;;4976443;28;20086;-66
2023/01/26 08:12:01;;;;;;;2.45;0.85;;;;;;;;;;4992413;28;20038;-65
2023/01/26 08:14:28;;;;;;;6.22;0.85;;;;;;;;;;4970736;28;20371;-65
2023/01/26 08:16:54;;;;;;;3.00;1.00;;;;;;;;;;4979420;28;20052;-64
2023/01/26 08:19:21;;;;;;;2.88;0.82;;;;;;;;;;4975725;28;20046;-65
2023/01/26 08:21:48;;;;;;;4.53;1.00;;;;;;;;;;4977644;28;20046;-66
2023/01/26 08:24:14;;;;;;;4.07;0.80;;;;;;;;;;4980150;28;20046;-65
2023/01/26 08:26:41;;;;;;;2.90;0.88;;;;;;;;;;4981041;28;20039;-65
2023/01/26 08:29:08;;;;;;;3.13;0.80;;;;;;;;;;4975226;28;20092;-65
2023/01/26 08:31:34;;;;;;;2.90;0.60;;;;;;;;;;4976640;28;20679;-64
2023/01/26 08:34:01;;;;;;;2.72;0.60;;;;;;;;;;4976526;28;20730;-65
2023/01/26 08:36:28;;;;;;;4.80;0.65;;;;;;;;;;4976117;28;20035;-66
2023/01/26 08:38:54;;;;;;;3.58;0.80;;;;;;;;;;4977400;28;20046;-65
2023/01/26 08:41:21;;;;;;;1.80;0.60;;;;;;;;;;4990247;28;20045;-65
2023/01/26 08:43:48;;;;;;;2.00;0.60;;;;;;;;;;4977872;28;20133;-66
2023/01/26 08:46:15;;;;;;;3.67;0.63;;;;;;;;;;4978585;28;20050;-65
2023/01/26 08:48:41;;;;;;;1.23;0.60;;;;;;;;;;4966984;28;21847;-65
2023/01/26 08:51:08;;;;;;;4.25;0.50;;;;;;;;;;4967208;28;20543;-65
2023/01/26 08:53:36;;;;;;;1.33;0.40;;;;;;;;;;4969933;28;20240;-64
2023/01/26 08:56:04;;;;;;;1.98;0.60;;;;;;;;;;4969220;28;21124;-63
2023/01/26 08:58:32;;;;;;;1.67;0.50;;;;;;;;;;4968208;28;20057;-65
2023/01/26 09:00:59;;;;;;;1.33;0.50;;;;;;;;;;4967558;28;20042;-64
2023/01/26 09:03:26;;;;;;;2.05;0.50;;;;;;;;;;4961781;28;20070;-63
2023/01/26 09:05:52;;;;;;;1.35;0.45;;;;;;;;;;4966773;28;20053;-64
2023/01/26 09:08:19;;;;;;;1.58;0.50;;;;;;;;;;4967533;28;20053;-65
2023/01/26 09:10:45;;;;;;;2.35;0.73;;;;;;;;;;4959443;28;20042;-65
2023/01/26 09:13:12;;;;;;;4.15;0.75;;;;;;;;;;4967550;28;20096;-65
2023/01/26 09:15:39;;;;;;;1.25;0.50;;;;;;;;;;4966110;28;20030;-67
2023/01/26 09:18:06;;;;;;;2.33;0.60;;;;;;;;;;4968015;28;20067;-67
2023/01/26 09:23:29;;;;;;;1.73;0.50;;;;;;;;;;5040369;27;20404;-59
2023/01/26 09:25:56;;;;;;;3.05;0.77;;;;;;;;;;5015051;28;20143;-63
2023/01/26 09:28:22;;;;;;;5.28;0.75;;;;;;;;;;5015212;28;20044;-63
2023/01/26 09:30:49;;;;;;;1.55;0.50;;;;;;;;;;5014644;28;20122;-64
2023/01/26 09:33:15;;;;;;;1.58;0.50;;;;;;;;;;5016900;28;20045;-63
2023/01/26 09:35:42;;;;;;;2.38;0.60;;;;;;;;;;5016690;28;20108;-63
2023/01/26 09:38:09;;;;;;;2.22;0.70;;;;;;;;;;5016681;28;20482;-64
2023/01/26 09:40:49;;;;;;;3.42;0.80;;;;;;;;;;5015713;28;20549;-66
2023/01/26 09:43:32;;;;;;;1.58;0.60;;;;;;;;;;5016772;28;21665;-64
2023/01/26 09:46:05;;;;;;;3.67;0.75;;;;;;;;;;5022585;28;20048;-64
2023/01/26 09:48:32;;;;;;;2.83;0.70;;;;;;;;;;5015440;28;20141;-63
2023/01/26 09:51:10;;;;;;;1.85;0.52;;;;;;;;;;5014944;28;20493;-66
2023/01/26 09:53:37;;;;;;;2.13;0.50;;;;;;;;;;5015084;28;20034;-65
2023/01/26 09:56:04;;;;;;;1.73;0.50;;;;;;;;;;5016180;28;20037;-66
2023/01/26 09:58:41;;;;;;;2.75;0.70;;;;;;;;;;5015511;28;20033;-65
2023/01/26 10:01:21;;;;;;;2.10;0.65;;;;;;;;;;5014409;28;20045;-65
2023/01/26 10:03:59;;;;;;;1.58;0.60;;;;;;;;;;5017492;28;20053;-65
2023/01/26 10:06:28;;;;;;;2.63;0.50;;;;;;;;;;5035157;28;20564;-64
2023/01/26 10:08:56;;;;;;;1.63;0.50;;;;;;;;;;5036034;28;20034;-65
2023/01/26 10:11:41;;;;;;;1.65;0.50;;;;;;;;;;5034719;28;20428;-65
2023/01/26 10:14:07;;;;;;;1.42;0.50;;;;;;;;;;5034996;28;20037;-64
2023/01/26 10:16:34;;;;;;;1.52;0.50;;;;;;;;;;5035830;28;20064;-65
2023/01/26 10:19:06;;;;;;;1.38;0.40;;;;;;;;;;5034431;28;20052;-65
2023/01/26 10:21:39;;;;;;;1.45;0.50;;;;;;;;;;5033627;28;20049;-66
2023/01/26 10:24:09;;;;;;;1.15;0.47;;;;;;;;;;5030034;28;20592;-65
2023/01/26 10:26:36;;;;;;;0.77;0.30;;;;;;;;;;5035233;28;20039;-64
2023/01/26 10:29:04;;;;;;;2.10;0.50;;;;;;;;;;5030672;28;20044;-65
2023/01/26 10:31:32;;;;;;;1.25;0.40;;;;;;;;;;5033483;28;20870;-66
2023/01/26 10:34:09;;;;;;;1.42;0.50;;;;;;;;;;5025955;28;20882;-65
2023/01/26 10:36:35;;;;;;;0.80;0.40;;;;;;;;;;5019959;28;20079;-65
2023/01/26 10:39:06;;;;;;;1.25;0.40;;;;;;;;;;5020891;28;20037;-66
2023/01/26 10:41:33;;;;;;;0.95;0.40;;;;;;;;;;5021622;28;20046;-65
2023/01/26 10:44:00;;;;;;;0.45;0.40;;;;;;;;;;5015522;28;20125;-64
2023/01/26 10:46:28;;;;;;;1.02;0.40;;;;;;;;;;5020987;28;20083;-64
2023/01/26 10:49:14;;;;;;;0.35;0.30;;;;;;;;;;5021474;28;20033;-64
2023/01/26 10:51:44;;;;;;;0.68;0.38;;;;;;;;;;5020406;28;20059;-64
2023/01/26 10:54:21;;;;;;;0.65;0.30;;;;;;;;;;5020182;28;20594;-64
2023/01/26 10:56:52;;;;;;;1.15;0.40;;;;;;;;;;5019913;28;20564;-64
2023/01/26 10:59:25;;;;;;;0.30;0.30;;;;;;;;;;5020266;28;20440;-64
2023/01/26 11:01:52;;;;;;;0.55;0.40;;;;;;;;;;5021062;28;20057;-66
2023/01/26 11:04:19;;;;;;;0.60;0.35;;;;;;;;;;5021612;28;20041;-64
2023/01/26 11:06:46;;;;;;;0.88;0.40;;;;;;;;;;5020594;28;20502;-65
2023/01/26 11:09:18;;;;;;;1.02;0.40;;;;;;;;;;5021132;28;20672;-66
2023/01/26 11:12:11;;;;;;;1.80;0.40;;;;;;;;;;5021134;28;20046;-63
2023/01/26 11:14:38;;;;;;;0.52;0.30;;;;;;;;;;5017749;28;20033;-64
2023/01/26 11:17:05;;;;;;;0.63;0.40;;;;;;;;;;5021075;28;20063;-64
2023/01/26 11:19:34;;;;;;;0.50;0.30;;;;;;;;;;5019707;28;20493;-64
2023/01/26 11:22:27;;;;;;;0.35;0.30;;;;;;;;;;5020036;28;20052;-64
2023/01/26 11:25:08;;;;;;;0.65;0.30;;;;;;;;;;5017900;28;20041;-63
2023/01/26 11:27:40;;;;;;;0.47;0.30;;;;;;;;;;5019390;28;20122;-64
2023/01/26 11:30:17;;;;;;;0.32;0.30;;;;;;;;;;5021195;28;20095;-64
2023/01/26 11:32:55;;;;;;;0.30;0.30;;;;;;;;;;5021534;28;20476;-63
2023/01/26 11:35:40;;;;;;;0.30;0.30;;;;;;;;;;5019563;28;20049;-64
2023/01/26 11:38:24;;;;;;;2.35;0.30;;;;;;;;;;5019788;28;20033;-63
2023/01/26 11:40:50;;;;;;;;;;;;;;;;;;5021030;28;20412;-64
2023/01/26 11:43:26;;;;;;;0.40;0.30;;;;;;;;;;5021348;28;19928;-63
2023/01/26 11:46:01;;;;;;;1.42;0.30;;;;;;;;;;5018367;28;20097;-64
2023/01/26 11:48:49;;;;;;;1.05;0.30;;;;;;;;;;5019056;28;20666;-64
2023/01/26 11:51:16;;;;;;;0.60;0.32;;;;;;;;;;5021450;28;20058;-63
2023/01/26 11:53:55;;;;;;;0.30;0.30;;;;;;;;;;5012759;28;20048;-63
2023/01/26 11:56:24;;;;;;;0.30;0.30;;;;;;;;;;5018687;28;20041;-66
2023/01/26 11:59:09;;;;;;;1.50;0.40;;;;;;;;;;5021089;28;20029;-67
2023/01/26 12:01:40;;;;;;;2.10;0.30;;;;;;;;;;5014434;28;20595;-63
2023/01/26 12:04:10;;;;;;;0.88;0.40;;;;;;;;;;5021641;28;20044;-63
2023/01/26 12:06:37;;;;;;;0.77;0.38;;;;;;;;;;5018895;28;20029;-65
2023/01/26 12:09:03;;;;;;;0.77;0.40;;;;;;;;;;5021461;28;20045;-63
2023/01/26 12:11:53;;;;;;;0.60;0.30;;;;;;;;;;5020451;28;20504;-65
2023/01/26 12:14:43;;;;;;;0.35;0.30;;;;;;;;;;5010791;28;20048;-64
2023/01/26 12:17:18;;;;;;;0.30;0.30;;;;;;;;;;5019560;28;20037;-63
2023/01/26 12:20:06;;;;;;;1.17;0.32;;;;;;;;;;5018861;28;20137;-63
2023/01/26 12:22:33;;;;;;;0.82;0.30;;;;;;;;;;5019703;28;20057;-63
2023/01/26 12:25:08;;;;;;;0.63;0.40;;;;;;;;;;5020952;28;20520;-63
2023/01/26 12:27:40;;;;;;;1.33;0.40;;;;;;;;;;5021949;28;20518;-63
2023/01/26 12:30:26;;;;;;;1.00;0.40;;;;;;;;;;5023779;28;20041;-65
2023/01/26 12:32:52;;;;;;;1.52;0.40;;;;;;;;;;5022602;28;20055;-65
2023/01/26 12:35:28;;;;;;;0.57;0.30;;;;;;;;;;5002223;28;20164;-64
2023/01/26 12:38:06;;;;;;;0.88;0.40;;;;;;;;;;5017846;28;20452;-63
2023/01/26 12:40:48;;;;;;;0.68;0.35;;;;;;;;;;5019039;28;20049;-63
2023/01/26 12:43:33;;;;;;;0.45;0.30;;;;;;;;;;5019929;28;20056;-64
2023/01/26 12:46:01;;;;;;;1.55;0.50;;;;;;;;;;5017839;28;20041;-64
2023/01/26 12:48:36;;;;;;;1.42;0.40;;;;;;;;;;5019001;28;20045;-64
2023/01/26 12:51:12;;;;;;;2.75;0.43;;;;;;;;;;5020538;28;20426;-64
2023/01/26 12:53:59;;;;;;;0.43;0.30;;;;;;;;;;5018009;28;20107;-65
2023/01/26 12:56:35;;;;;;;0.30;0.30;;;;;;;;;;5017650;28;20710;-64
2023/01/26 12:59:06;;;;;;;2.90;0.40;;;;;;;;;;5019436;28;20048;-64
2023/01/26 13:01:40;;;;;;;2.50;0.40;;;;;;;;;;5011560;28;20505;-65
2023/01/26 13:04:12;;;;;;;1.15;0.47;;;;;;;;;;5018374;28;20162;-65
2023/01/26 13:06:38;;;;;;;1.35;0.50;;;;;;;;;;5018664;28;20994;-65
2023/01/26 13:09:24;;;;;;;1.45;0.43;;;;;;;;;;5019474;28;20072;-65
2023/01/26 13:11:55;;;;;;;2.28;0.40;;;;;;;;;;5018659;28;20086;-65
2023/01/26 13:14:31;;;;;;;1.60;0.32;;;;;;;;;;5018574;28;20041;-65
2023/01/26 13:17:18;;;;;;;1.25;0.40;;;;;;;;;;5018718;28;20568;-64
2023/01/26 13:19:44;;;;;;;0.47;0.30;;;;;;;;;;5017735;28;20029;-64
2023/01/26 13:22:20;;;;;;;1.27;0.43;;;;;;;;;;5018631;28;20045;-64
2023/01/26 13:24:48;;;;;;;0.70;0.32;;;;;;;;;;5019066;28;20506;-64
2023/01/26 13:27:30;;;;;;;2.65;0.40;;;;;;;;;;5016222;28;20033;-64
2023/01/26 13:29:56;;;;;;;1.60;0.40;;;;;;;;;;5017806;28;20124;-66
2023/01/26 13:32:23;;;;;;;2.00;0.50;;;;;;;;;;5019312;28;20063;-65
2023/01/26 13:34:56;;;;;;;3.75;0.43;;;;;;;;;;5018442;28;20904;-64
2023/01/26 13:37:58;;;;;;;0.93;0.40;;;;;;;;;;5017339;28;20630;-64
2023/01/26 13:40:24;;;;;;;3.22;0.40;;;;;;;;;;4953184;28;20046;-63
2023/01/26 13:42:55;;;;;;;2.80;0.40;;;;;;;;;;5005494;28;20049;-64
2023/01/26 13:45:33;;;;;;;0.77;0.40;;;;;;;;;;5018824;28;20076;-64
2023/01/26 13:48:02;;;;;;;0.93;0.40;;;;;;;;;;5018513;28;20065;-64
2023/01/26 13:50:30;;;;;;;1.35;0.70;;;;;;;;;;5018868;28;20777;-65
2023/01/26 13:52:57;;;;;;;3.30;0.60;;;;;;;;;;5018823;28;20045;-64
2023/01/26 13:55:26;;;;;;;5.25;0.60;;;;;;;;;;5017545;28;20037;-64
2023/01/26 13:58:11;;;;;;;2.03;0.68;;;;;;;;;;5018237;28;20133;-64
2023/01/26 14:00:38;;;;;;;0.98;0.40;;;;;;;;;;5018615;28;20251;-63
2023/01/26 14:03:05;;;;;;;5.47;0.50;;;;;;;;;;5018759;28;20209;-64
2023/01/26 14:05:34;;;;;;;2.17;0.50;;;;;;;;;;5018198;28;20342;-64
2023/01/26 14:08:01;;;;;;;1.50;0.55;;;;;;;;;;5016964;28;20096;-64
2023/01/26 14:10:28;;;;;;;0.85;0.40;;;;;;;;;;5021473;28;20042;-64
2023/01/26 14:12:56;;;;;;;1.08;0.47;;;;;;;;;;5021826;28;20529;-64
2023/01/26 14:15:27;;;;;;;3.55;0.52;;;;;;;;;;5021561;28;20095;-63
2023/01/26 14:17:58;;;;;;;0.73;0.40;;;;;;;;;;5003533;28;20146;-63
2023/01/26 14:20:31;;;;;;;2.15;0.50;;;;;;;;;;5022063;28;20037;-63
2023/01/26 14:23:04;;;;;;;2.00;0.45;;;;;;;;;;5022093;28;20061;-62
2023/01/26 14:25:30;;;;;;;0.95;0.40;;;;;;;;;;5021633;28;20057;-63
2023/01/26 14:27:57;;;;;;;1.52;0.50;;;;;;;;;;5023180;28;20510;-64
2023/01/26 14:30:28;;;;;;;2.03;0.50;;;;;;;;;;5022609;28;20041;-62
2023/01/26 14:33:01;;;;;;;1.55;0.52;;;;;;;;;;5020970;28;20049;-64
2023/01/26 14:35:28;;;;;;;2.33;0.40;;;;;;;;;;5003841;28;20048;-63
2023/01/26 14:38:13;;;;;;;1.73;0.50;;;;;;;;;;5000526;28;20287;-64
2023/01/26 14:40:59;;;;;;;1.98;0.60;;;;;;;;;;5000529;28;20060;-63
2023/01/26 14:43:26;;;;;;;4.03;0.47;;;;;;;;;;4999864;28;20053;-63
2023/01/26 14:45:53;;;;;;;3.25;0.50;;;;;;;;;;5001592;28;20038;-61
2023/01/26 14:48:21;;;;;;;1.42;0.45;;;;;;;;;;5000329;28;20890;-64
2023/01/26 14:50:48;;;;;;;2.15;0.50;;;;;;;;;;5001227;28;20038;-63
2023/01/26 14:53:22;;;;;;;1.67;0.50;;;;;;;;;;5000904;28;20092;-64
2023/01/26 14:55:50;;;;;;;2.10;0.68;;;;;;;;;;5020740;28;20428;-63
2023/01/26 14:58:33;;;;;;;2.22;0.50;;;;;;;;;;5017181;28;20038;-64
2023/01/26 15:01:00;;;;;;;2.43;0.60;;;;;;;;;;5020834;28;20057;-63
2023/01/26 15:03:35;;;;;;;1.73;0.50;;;;;;;;;;5011323;28;20053;-64
2023/01/26 15:06:04;;;;;;;1.60;0.50;;;;;;;;;;5021287;28;20038;-63
2023/01/26 15:08:31;;;;;;;2.15;0.65;;;;;;;;;;5002073;28;20129;-63
2023/01/26 15:13:45;;;;;;;2.30;0.55;;;;;;;;;;5020254;28;20151;-63
2023/01/26 15:16:19;;;;;;;1.65;0.50;;;;;;;;;;5018942;28;20049;-64
2023/01/26 15:18:46;;;;;;;;;;;;;;;;;;5021122;28;20053;-63
2023/01/26 15:21:13;;;;;;;1.33;0.40;;;;;;;;;;5020435;28;19966;-64
2023/01/26 15:23:44;;;;;;;1.20;0.45;;;;;;;;;;5019921;28;20049;-67
2023/01/26 15:26:16;;;;;;;3.65;0.50;;;;;;;;;;5020347;28;20393;-64
2023/01/26 15:28:43;;;;;;;1.58;0.43;;;;;;;;;;5020394;28;20044;-64
2023/01/26 15:31:20;;;;;;;1.23;0.43;;;;;;;;;;5020480;28;20324;-64
2023/01/26 15:33:48;;;;;;;1.50;0.40;;;;;;;;;;5020339;28;20136;-64
2023/01/26 15:36:29;;;;;;;0.98;0.40;;;;;;;;;;5020102;28;20036;-64
2023/01/26 15:39:16;;;;;;;3.67;1.20;;;;;;;;;;5017481;28;20037;-64
2023/01/26 15:41:45;;;;;;;0.70;0.30;;;;;;;;;;5018121;28;20720;-63
2023/01/26 15:44:15;;;;;;;1.02;0.40;;;;;;;;;;5020600;28;20088;-63
2023/01/26 15:46:42;;;;;;;1.45;0.55;;;;;;;;;;5018524;28;20095;-63
2023/01/26 15:49:09;;;;;;;2.05;0.50;;;;;;;;;;5019888;28;20498;-63
2023/01/26 15:51:36;;;;;;;1.73;0.60;;;;;;;;;;5018830;28;20091;-63
2023/01/26 15:54:03;;;;;;;1.73;0.50;;;;;;;;;;5019386;28;20871;-63
2023/01/26 15:56:30;;;;;;;1.52;0.40;;;;;;;;;;5018871;28;20064;-63